createdAt,value
2023-03-03T00:01:16.007Z,65.85
2023-03-03T00:03:42.846Z,66.21
2023-03-03T00:06:12.643Z,65.96
2023-03-03T00:08:40.170Z,65.61
2023-03-03T00:11:07.449Z,65.71
2023-03-03T00:13:43.143Z,66.03
2023-03-03T00:16:30.872Z,65.94
2023-03-03T00:18:59.418Z,66.37
2023-03-03T00:21:33.408Z,66.30
2023-03-03T00:24:34.957Z,66.44
2023-03-03T00:27:28.677Z,66.40
2023-03-03T00:29:57.531Z,66.30
2023-03-03T00:32:50.219Z,66.38
2023-03-03T00:35:29.723Z,66.27
2023-03-03T00:38:02.198Z,66.39
2023-03-03T00:40:36.385Z,66.52
2023-03-03T00:43:22.455Z,66.79
2023-03-03T00:45:56.897Z,66.81
2023-03-03T00:48:40.920Z,66.36
2023-03-03T00:51:23.029Z,66.52
2023-03-03T00:53:50.255Z,66.70
2023-03-03T00:56:17.210Z,66.84
2023-03-03T00:58:45.818Z,66.29
2023-03-03T01:01:14.351Z,66.59
2023-03-03T01:03:44.959Z,66.42
2023-03-03T01:06:12.503Z,66.57
2023-03-03T01:08:39.524Z,66.93
2023-03-03T01:11:15.684Z,67.00
2023-03-03T01:13:45.459Z,67.04
2023-03-03T01:16:12.288Z,66.84
2023-03-03T01:18:41.195Z,66.80
2023-03-03T01:21:09.804Z,66.72
2023-03-03T01:23:36.793Z,66.81
2023-03-03T01:26:04.781Z,66.95
2023-03-03T01:28:33.605Z,67.46
2023-03-03T01:31:03.525Z,67.07
2023-03-03T01:33:31.258Z,67.48
2023-03-03T01:35:58.463Z,67.91
2023-03-03T01:38:25.851Z,68.38
2023-03-03T01:40:57.595Z,68.22
2023-03-03T01:43:28.978Z,67.89
2023-03-03T01:45:56.522Z,68.43
2023-03-03T01:48:30.897Z,68.63
2023-03-03T01:51:01.757Z,68.38
2023-03-03T01:53:42.027Z,68.15
2023-03-03T01:56:09.661Z,68.81
2023-03-03T01:58:44.584Z,69.35
2023-03-03T02:01:15.591Z,69.25
2023-03-03T02:03:43.592Z,68.90
2023-03-03T02:06:15.024Z,69.25
2023-03-03T02:09:08.867Z,68.71
2023-03-03T02:11:38.235Z,68.62
2023-03-03T02:14:05.076Z,68.28
2023-03-03T02:16:32.129Z,69.34
2023-03-03T02:18:59.662Z,69.49
2023-03-03T02:21:27.647Z,69.11
2023-03-03T02:23:57.073Z,69.42
2023-03-03T02:26:26.532Z,69.35
2023-03-03T02:28:56.995Z,69.36
2023-03-03T02:31:28.060Z,69.08
2023-03-03T02:33:55.469Z,69.25
2023-03-03T02:36:25.732Z,69.30
2023-03-03T02:39:12.525Z,69.29
2023-03-03T02:42:04.256Z,70.02
2023-03-03T02:44:36.854Z,69.78
2023-03-03T02:47:03.641Z,70.46
2023-03-03T02:49:33.323Z,70.53
2023-03-03T02:52:01.777Z,70.73
2023-03-03T02:54:30.881Z,70.58
2023-03-03T02:56:58.564Z,69.92
2023-03-03T02:59:27.584Z,70.30
2023-03-03T03:01:55.149Z,70.39
2023-03-03T03:04:25.116Z,69.87
2023-03-03T03:06:53.833Z,69.98
2023-03-03T03:09:24.448Z,70.97
2023-03-03T03:11:52.232Z,70.49
2023-03-03T03:14:22.877Z,70.78
2023-03-03T03:16:50.522Z,70.57
2023-03-03T03:19:17.288Z,70.54
2023-03-03T03:21:44.466Z,70.88
2023-03-03T03:24:11.511Z,71.23
2023-03-03T03:26:41.328Z,71.37
2023-03-03T03:29:10.397Z,71.44
2023-03-03T03:31:37.732Z,71.73
2023-03-03T03:34:04.471Z,71.87
2023-03-03T03:36:31.544Z,72.29
2023-03-03T03:38:58.763Z,71.67
2023-03-03T03:41:25.599Z,71.37
2023-03-03T03:43:52.517Z,71.99
2023-03-03T03:46:19.383Z,71.94
2023-03-03T03:48:46.319Z,72.27
2023-03-03T03:51:13.943Z,72.23
2023-03-03T03:53:41.170Z,72.20
2023-03-03T03:56:07.915Z,72.20
2023-03-03T03:58:35.208Z,72.31
2023-03-03T04:01:06.375Z,72.43
2023-03-03T04:03:35.136Z,71.61
2023-03-03T04:06:04.004Z,71.55
2023-03-03T04:08:30.759Z,71.46
2023-03-03T04:10:57.910Z,71.91
2023-03-03T04:13:28.313Z,72.36
2023-03-03T04:15:55.213Z,71.92
2023-03-03T04:18:21.986Z,71.85
2023-03-03T04:20:49.518Z,71.61
2023-03-03T04:23:16.352Z,72.24
2023-03-03T04:25:43.126Z,72.75
2023-03-03T04:28:15.146Z,72.54
2023-03-03T04:30:42.217Z,72.61
2023-03-03T04:33:09.605Z,72.31
2023-03-03T04:35:38.141Z,72.72
2023-03-03T04:38:05.270Z,72.15
2023-03-03T04:40:32.312Z,72.05
2023-03-03T04:42:59.386Z,72.38
2023-03-03T04:45:26.139Z,72.10
2023-03-03T04:47:53.051Z,71.61
2023-03-03T04:50:20.478Z,72.04
2023-03-03T04:52:47.182Z,71.77
2023-03-03T04:55:16.140Z,72.44
2023-03-03T04:57:43.892Z,72.55
2023-03-03T05:00:13.123Z,72.11
2023-03-03T05:02:40.799Z,72.47
2023-03-03T05:05:09.994Z,72.44
2023-03-03T05:07:36.780Z,72.39
2023-03-03T05:10:03.715Z,71.70
2023-03-03T05:12:30.861Z,71.92
2023-03-03T05:14:57.549Z,71.58
2023-03-03T05:17:24.448Z,71.29
2023-03-03T05:19:51.431Z,71.60
2023-03-03T05:22:18.160Z,71.89
2023-03-03T05:24:48.473Z,71.77
2023-03-03T05:27:16.284Z,71.92
2023-03-03T05:29:43.192Z,71.83
2023-03-03T05:32:10.050Z,71.74
2023-03-03T05:34:37.107Z,71.59
2023-03-03T05:37:06.071Z,71.56
2023-03-03T05:39:33.564Z,72.10
2023-03-03T05:42:00.790Z,72.16
2023-03-03T05:44:27.836Z,71.70
2023-03-03T05:46:56.057Z,71.99
2023-03-03T05:49:23.015Z,71.43
2023-03-03T05:51:51.962Z,71.96
2023-03-03T05:54:18.885Z,72.10
2023-03-03T05:56:45.668Z,72.08
2023-03-03T05:59:12.469Z,72.01
2023-03-03T06:01:39.335Z,71.79
2023-03-03T06:04:06.731Z,71.81
2023-03-03T06:06:34.367Z,71.61
2023-03-03T06:09:01.038Z,71.96
2023-03-03T06:11:28.108Z,71.92
2023-03-03T06:13:54.908Z,71.77
2023-03-03T06:16:21.960Z,72.10
2023-03-03T06:18:49.190Z,72.06
2023-03-03T06:21:15.895Z,71.75
2023-03-03T06:23:42.906Z,72.05
2023-03-03T06:26:09.874Z,71.67
2023-03-03T06:28:36.667Z,71.51
2023-03-03T06:31:03.617Z,71.41
2023-03-03T06:33:30.920Z,71.56
2023-03-03T06:35:58.177Z,71.43
2023-03-03T06:38:24.908Z,71.26
2023-03-03T06:40:52.152Z,71.12
2023-03-03T06:43:18.870Z,70.95
2023-03-03T06:45:46.303Z,70.88
2023-03-03T06:48:13.808Z,70.96
2023-03-03T06:50:41.891Z,71.02
2023-03-03T06:53:17.893Z,71.21
2023-03-03T06:55:45.752Z,71.41
2023-03-03T06:58:18.286Z,71.12
2023-03-03T07:00:58.697Z,71.07
2023-03-03T07:03:32.021Z,71.04
2023-03-03T07:05:59.171Z,70.91
2023-03-03T07:08:30.677Z,70.97
2023-03-03T07:11:05.770Z,70.79
2023-03-03T07:13:33.966Z,71.21
2023-03-03T07:16:10.419Z,71.12
2023-03-03T07:18:57.321Z,70.82
2023-03-03T07:21:36.000Z,70.89
2023-03-03T07:24:27.581Z,70.71
2023-03-03T07:27:10.611Z,70.37
2023-03-03T07:29:40.742Z,70.15
2023-03-03T07:32:41.955Z,70.22
2023-03-03T07:35:29.211Z,70.01
2023-03-03T07:37:56.694Z,69.89
2023-03-03T07:40:32.839Z,69.93
2023-03-03T07:43:01.337Z,69.92
2023-03-03T07:45:37.673Z,69.76
2023-03-03T07:48:23.361Z,69.69
2023-03-03T07:50:50.362Z,69.53
2023-03-03T07:53:34.259Z,69.37
2023-03-03T07:56:01.687Z,69.27
2023-03-03T07:58:46.813Z,69.14
2023-03-03T08:01:44.534Z,69.23
2023-03-03T08:04:22.590Z,69.11
2023-03-03T08:06:52.436Z,68.96
2023-03-03T08:09:19.426Z,68.89
2023-03-03T08:11:52.496Z,68.89
2023-03-03T08:14:33.230Z,68.73
2023-03-03T08:17:01.973Z,68.55
2023-03-03T08:19:30.761Z,68.51
2023-03-03T08:22:11.716Z,68.48
2023-03-03T08:24:38.747Z,68.43
2023-03-03T08:27:05.444Z,68.32
2023-03-03T08:29:32.288Z,68.06
2023-03-03T08:31:59.221Z,67.94
2023-03-03T08:34:26.310Z,67.84
2023-03-03T08:36:53.286Z,67.68
2023-03-03T08:39:20.395Z,67.56
2023-03-03T08:41:47.276Z,67.49
2023-03-03T08:44:14.110Z,67.44
2023-03-03T08:46:40.950Z,67.28
2023-03-03T08:49:07.651Z,67.12
2023-03-03T08:51:34.564Z,66.98
2023-03-03T08:54:01.651Z,66.79
2023-03-03T08:56:28.556Z,66.68
2023-03-03T08:59:03.297Z,66.56
2023-03-03T09:01:31.921Z,66.51
2023-03-03T09:03:59.098Z,66.21
2023-03-03T09:06:25.909Z,66.24
2023-03-03T09:08:54.290Z,66.10
2023-03-03T09:11:27.620Z,66.06
2023-03-03T09:14:06.630Z,66.04
2023-03-03T09:16:38.587Z,65.76
2023-03-03T09:19:37.392Z,65.88
2023-03-03T09:22:22.407Z,65.75
2023-03-03T09:24:53.396Z,65.56
2023-03-03T09:27:28.999Z,65.49
2023-03-03T09:30:02.141Z,65.55
2023-03-03T09:32:42.703Z,65.22
2023-03-03T09:35:39.764Z,65.34
2023-03-03T09:38:15.821Z,65.41
2023-03-03T09:41:08.882Z,65.20
2023-03-03T09:43:49.564Z,65.21
2023-03-03T09:46:54.904Z,64.92
2023-03-03T09:49:38.752Z,64.65
2023-03-03T09:52:17.592Z,64.69
2023-03-03T09:55:03.192Z,64.69
2023-03-03T09:58:04.525Z,64.26
2023-03-03T10:01:00.963Z,64.16
2023-03-03T10:04:06.176Z,64.07
2023-03-03T10:06:48.450Z,63.64
2023-03-03T10:09:33.545Z,63.65
2023-03-03T10:12:18.903Z,63.91
2023-03-03T10:15:37.221Z,63.86
2023-03-03T10:18:33.310Z,63.69
2023-03-03T10:21:08.740Z,63.33
2023-03-03T10:23:57.646Z,63.48
2023-03-03T10:27:12.530Z,63.35
2023-03-03T10:30:00.389Z,63.36
2023-03-03T10:32:30.886Z,63.15
2023-03-03T10:35:40.010Z,62.66
2023-03-03T10:38:13.984Z,62.72
2023-03-03T10:40:50.790Z,62.16
2023-03-03T10:43:47.084Z,61.81
2023-03-03T10:46:41.231Z,62.21
2023-03-03T10:49:46.706Z,62.23
2023-03-03T10:52:36.961Z,61.95
2023-03-03T10:55:22.532Z,60.86
2023-03-03T10:58:13.225Z,61.10
2023-03-03T11:00:44.828Z,61.05
2023-03-03T11:03:40.614Z,60.63
2023-03-03T11:06:19.935Z,60.43
2023-03-03T11:09:07.989Z,60.50
2023-03-03T11:12:12.495Z,59.68
2023-03-03T11:14:48.774Z,59.68
2023-03-03T11:17:34.174Z,59.53
2023-03-03T11:20:19.949Z,58.49
2023-03-03T11:23:14.225Z,59.50
2023-03-03T11:26:11.341Z,60.29
2023-03-03T11:29:01.293Z,60.04
2023-03-03T11:31:49.495Z,60.96
2023-03-03T11:34:41.393Z,60.13
2023-03-03T11:37:13.292Z,59.89
2023-03-03T11:39:42.538Z,60.15
2023-03-03T11:42:25.810Z,60.68
2023-03-03T11:44:59.235Z,60.38
2023-03-03T11:47:38.238Z,61.50
2023-03-03T11:50:21.540Z,61.50
2023-03-03T11:53:26.209Z,60.29
2023-03-03T11:56:01.941Z,61.14
2023-03-03T11:58:41.076Z,61.03
2023-03-03T12:01:46.512Z,61.26
2023-03-03T12:04:18.636Z,60.94
2023-03-03T12:07:17.892Z,60.03
2023-03-03T12:09:48.424Z,59.44
2023-03-03T12:12:31.431Z,59.86
2023-03-03T12:15:15.386Z,59.67
2023-03-03T12:17:57.745Z,59.28
2023-03-03T12:20:24.677Z,58.81
2023-03-03T12:23:06.885Z,58.84
2023-03-03T12:25:46.604Z,59.35
2023-03-03T12:28:48.243Z,58.73
2023-03-03T12:31:29.464Z,57.24
2023-03-03T12:34:23.833Z,57.95
2023-03-03T12:36:59.288Z,56.65
2023-03-03T12:39:49.548Z,57.15
2023-03-03T12:42:42.613Z,55.63
2023-03-03T12:45:35.096Z,53.37
2023-03-03T12:48:07.792Z,54.67
2023-03-03T12:51:06.845Z,55.02
2023-03-03T12:53:52.312Z,55.11
2023-03-03T12:57:08.962Z,54.39
2023-03-03T12:59:57.172Z,53.54
2023-03-03T13:03:21.625Z,53.28
2023-03-03T13:06:00.171Z,53.15
2023-03-03T13:08:39.093Z,49.50
2023-03-03T13:11:29.401Z,49.90
2023-03-03T13:14:25.525Z,50.56
2023-03-03T13:17:21.088Z,50.60
2023-03-03T13:19:56.836Z,50.97
2023-03-03T13:22:33.421Z,49.38
2023-03-03T13:25:27.287Z,48.61
2023-03-03T13:28:02.220Z,49.82
2023-03-03T13:30:44.390Z,48.22
2023-03-03T13:33:27.592Z,47.45
2023-03-03T13:36:12.035Z,47.70
2023-03-03T13:38:47.744Z,48.67
2023-03-03T13:41:38.324Z,48.54
2023-03-03T13:44:39.733Z,48.83
2023-03-03T13:47:37.726Z,48.54
2023-03-03T13:50:34.055Z,49.15
2023-03-03T13:53:03.818Z,48.30
2023-03-03T13:55:41.454Z,48.40
2023-03-03T13:58:21.203Z,46.85
2023-03-03T14:00:56.915Z,48.19
2023-03-03T14:03:51.479Z,48.23
2023-03-03T14:06:27.527Z,47.84
2023-03-03T14:09:04.103Z,47.83
2023-03-03T14:11:49.591Z,47.93
2023-03-03T14:14:41.236Z,48.14
2023-03-03T14:17:15.514Z,47.83
2023-03-03T14:20:06.632Z,47.45
2023-03-03T14:22:53.535Z,47.43
2023-03-03T14:25:20.635Z,47.52
2023-03-03T14:27:47.490Z,47.12
2023-03-03T14:30:36.332Z,47.20
2023-03-03T14:33:09.406Z,47.69
2023-03-03T14:35:42.998Z,47.34
2023-03-03T14:38:14.307Z,47.50
2023-03-03T14:40:44.817Z,47.35
2023-03-03T14:43:25.062Z,47.74
2023-03-03T14:45:56.080Z,48.59
2023-03-03T14:48:25.324Z,48.10
2023-03-03T14:51:18.231Z,48.68
2023-03-03T14:53:49.407Z,48.60
2023-03-03T14:56:22.490Z,48.52
2023-03-03T14:58:53.678Z,48.37
2023-03-03T15:01:32.458Z,48.99
2023-03-03T15:04:15.328Z,48.76
2023-03-03T15:06:43.795Z,48.91
2023-03-03T15:09:25.837Z,49.42
2023-03-03T15:11:55.399Z,49.12
2023-03-03T15:14:31.686Z,49.09
2023-03-03T15:17:24.097Z,49.42
2023-03-03T15:20:23.200Z,49.55
2023-03-03T15:22:56.599Z,49.29
2023-03-03T15:25:46.741Z,49.42
2023-03-03T15:28:27.142Z,49.56
2023-03-03T15:31:15.866Z,49.84
2023-03-03T15:34:00.654Z,50.68
2023-03-03T15:36:39.693Z,51.66
2023-03-03T15:39:36.700Z,52.01
2023-03-03T15:42:11.369Z,52.45
2023-03-03T15:44:52.326Z,52.76
2023-03-03T15:47:41.786Z,52.97
2023-03-03T15:50:18.183Z,53.02
2023-03-03T15:53:05.852Z,53.28
2023-03-03T15:56:10.443Z,53.27
2023-03-03T15:59:03.421Z,53.28
2023-03-03T16:02:00.594Z,53.46
2023-03-03T16:04:32.491Z,53.91
2023-03-03T16:07:13.254Z,54.18
2023-03-03T16:10:02.329Z,54.34
2023-03-03T16:12:29.276Z,54.49
2023-03-03T16:15:19.454Z,54.70
2023-03-03T16:18:10.287Z,54.80
2023-03-03T16:21:21.826Z,55.26
2023-03-03T16:23:55.745Z,55.28
2023-03-03T16:26:45.861Z,55.46
2023-03-03T16:29:40.139Z,55.85
2023-03-03T16:32:45.470Z,55.85
2023-03-03T16:35:24.157Z,55.96
2023-03-03T16:38:00.206Z,56.33
2023-03-03T16:40:42.680Z,56.69
2023-03-03T16:43:26.903Z,56.85
2023-03-03T16:46:02.247Z,57.05
2023-03-03T16:48:44.622Z,57.59
2023-03-03T16:51:11.349Z,57.59
2023-03-03T16:54:01.555Z,57.80
2023-03-03T16:56:38.670Z,57.91
2023-03-03T16:59:31.489Z,58.26
2023-03-03T17:02:19.849Z,58.53
2023-03-03T17:04:58.337Z,59.08
2023-03-03T17:07:53.001Z,59.29
2023-03-03T17:10:34.871Z,60.16
2023-03-03T17:13:01.935Z,59.73
2023-03-03T17:15:51.265Z,60.54
2023-03-03T17:18:38.767Z,60.85
2023-03-03T17:21:47.790Z,62.31
2023-03-03T17:24:35.610Z,63.20
2023-03-03T17:27:23.437Z,63.23
2023-03-03T17:30:41.724Z,62.81
2023-03-03T17:33:13.522Z,62.72
2023-03-03T17:35:59.037Z,61.89
2023-03-03T17:39:03.568Z,62.80
2023-03-03T17:41:57.998Z,62.22
2023-03-03T17:44:36.993Z,62.35
2023-03-03T17:47:08.185Z,62.61
2023-03-03T17:50:06.481Z,62.37
2023-03-03T17:53:05.832Z,62.24
2023-03-03T17:56:15.598Z,62.40
2023-03-03T17:59:10.517Z,63.00
2023-03-03T18:01:40.362Z,63.05
2023-03-03T18:04:19.637Z,63.09
2023-03-03T18:07:11.622Z,63.00
2023-03-03T18:10:15.620Z,62.78
2023-03-03T18:13:21.864Z,63.27
2023-03-03T18:16:11.544Z,62.63
2023-03-03T18:19:00.572Z,63.21
2023-03-03T18:21:49.355Z,63.10
2023-03-03T18:24:40.103Z,63.09
2023-03-03T18:27:29.028Z,63.17
2023-03-03T18:30:05.037Z,63.55
2023-03-03T18:32:42.168Z,63.56
2023-03-03T18:35:36.982Z,63.07
2023-03-03T18:38:15.929Z,63.43
2023-03-03T18:41:11.171Z,63.31
2023-03-03T18:43:44.052Z,63.32
2023-03-03T18:46:19.900Z,62.83
2023-03-03T18:49:08.311Z,63.29
2023-03-03T18:51:38.245Z,63.15
2023-03-03T18:54:18.008Z,62.95
2023-03-03T18:56:57.149Z,62.70
2023-03-03T18:59:29.803Z,62.71
2023-03-03T19:02:19.678Z,62.70
2023-03-03T19:04:46.739Z,62.73
2023-03-03T19:07:29.962Z,62.86
2023-03-03T19:10:03.212Z,62.93
2023-03-03T19:12:56.263Z,62.74
2023-03-03T19:15:28.836Z,62.66
2023-03-03T19:18:13.604Z,62.93
2023-03-03T19:20:45.306Z,63.07
2023-03-03T19:23:41.595Z,62.82
2023-03-03T19:26:25.007Z,63.00
2023-03-03T19:29:29.721Z,62.77
2023-03-03T19:32:37.247Z,62.80
2023-03-03T19:35:24.555Z,62.52
2023-03-03T19:37:58.220Z,62.86
2023-03-03T19:40:51.188Z,62.87
2023-03-03T19:43:45.343Z,62.85
2023-03-03T19:46:30.924Z,62.73
2023-03-03T19:49:07.292Z,62.62
2023-03-03T19:52:12.646Z,62.85
2023-03-03T19:55:00.233Z,63.05
2023-03-03T19:57:51.009Z,63.29
2023-03-03T20:00:42.179Z,63.44
2023-03-03T20:03:34.525Z,63.42
2023-03-03T20:06:33.613Z,62.95
2023-03-03T20:09:10.952Z,62.69
2023-03-03T20:12:15.137Z,62.70
2023-03-03T20:14:53.652Z,62.89
2023-03-03T20:17:43.752Z,62.52
2023-03-03T20:20:34.832Z,62.96
2023-03-03T20:23:05.439Z,62.34
2023-03-03T20:25:47.735Z,62.35
2023-03-03T20:28:39.453Z,62.73
2023-03-03T20:31:25.150Z,62.33
2023-03-03T20:33:58.972Z,62.71
2023-03-03T20:36:34.377Z,62.32
2023-03-03T20:39:32.798Z,62.25
2023-03-03T20:42:12.561Z,62.71
2023-03-03T20:44:58.902Z,62.73
2023-03-03T20:47:28.421Z,62.43
2023-03-03T20:50:14.987Z,62.86
2023-03-03T20:53:13.367Z,62.57
2023-03-03T20:55:57.180Z,62.54
2023-03-03T20:58:48.321Z,62.94
2023-03-03T21:01:23.683Z,63.08
2023-03-03T21:03:50.581Z,63.24
2023-03-03T21:06:20.316Z,63.40
2023-03-03T21:08:56.268Z,63.04
2023-03-03T21:11:42.308Z,62.50
2023-03-03T21:14:25.259Z,62.67
2023-03-03T21:16:56.118Z,62.84
2023-03-03T21:19:34.363Z,62.95
2023-03-03T21:22:02.345Z,62.62
2023-03-03T21:24:53.005Z,62.39
2023-03-03T21:27:28.132Z,62.34
2023-03-03T21:30:09.146Z,62.68
2023-03-03T21:32:44.964Z,62.73
2023-03-03T21:35:21.105Z,62.68
2023-03-03T21:37:55.770Z,62.81
2023-03-03T21:40:28.376Z,62.78
2023-03-03T21:42:59.276Z,62.66
2023-03-03T21:45:29.580Z,62.91
2023-03-03T21:47:57.561Z,63.06
2023-03-03T21:50:25.302Z,63.29
2023-03-03T21:52:51.995Z,63.25
2023-03-03T21:55:19.011Z,62.81
2023-03-03T21:57:45.738Z,63.01
2023-03-03T22:00:12.818Z,64.00
2023-03-03T22:02:39.670Z,63.97
2023-03-03T22:05:07.249Z,63.61
2023-03-03T22:07:34.271Z,63.78
2023-03-03T22:10:01.204Z,63.39
2023-03-03T22:12:28.107Z,63.93
2023-03-03T22:14:54.874Z,63.92
2023-03-03T22:17:24.874Z,63.85
2023-03-03T22:19:52.320Z,64.50
2023-03-03T22:22:18.993Z,64.10
2023-03-03T22:24:45.896Z,63.99
2023-03-03T22:27:12.555Z,64.19
2023-03-03T22:29:39.600Z,64.53
2023-03-03T22:32:06.477Z,65.38
2023-03-03T22:34:33.711Z,64.77
2023-03-03T22:37:00.646Z,65.12
2023-03-03T22:39:27.602Z,65.56
2023-03-03T22:41:54.304Z,65.43
2023-03-03T22:44:21.266Z,65.26
2023-03-03T22:46:48.383Z,65.01
2023-03-03T22:49:15.049Z,64.88
2023-03-03T22:51:41.859Z,65.39
2023-03-03T22:54:08.777Z,65.41
2023-03-03T22:56:35.495Z,65.64
2023-03-03T22:59:02.365Z,65.04
2023-03-03T23:01:29.358Z,65.41
2023-03-03T23:03:56.157Z,65.69
2023-03-03T23:06:22.876Z,65.56
2023-03-03T23:08:49.699Z,65.28
2023-03-03T23:11:16.369Z,65.39
2023-03-03T23:13:43.435Z,65.61
2023-03-03T23:16:10.382Z,65.91
2023-03-03T23:18:37.165Z,65.90
2023-03-03T23:21:04.404Z,65.79
2023-03-03T23:23:31.727Z,65.95
2023-03-03T23:25:58.599Z,65.76
2023-03-03T23:28:25.747Z,65.76
2023-03-03T23:30:52.673Z,66.27
2023-03-03T23:33:19.952Z,65.87
2023-03-03T23:42:16.592Z,66.16
2023-03-03T23:44:45.617Z,65.67
2023-03-03T23:47:13.763Z,65.93
2023-03-03T23:49:42.139Z,65.86
2023-03-03T23:52:10.453Z,66.14
2023-03-03T23:54:38.602Z,66.13
2023-03-03T23:57:08.250Z,65.70
2023-03-03T23:59:36.721Z,65.80
